createdAt,value
2023-04-08T00:02:05.887Z,101996.09
2023-04-08T00:04:33.891Z,101996.13
2023-04-08T00:07:01.666Z,101996.16
2023-04-08T00:09:29.360Z,101995.28
2023-04-08T00:11:57.678Z,102002.44
2023-04-08T00:14:25.490Z,102002.34
2023-04-08T00:16:54.939Z,101997.88
2023-04-08T00:19:22.722Z,102005.91
2023-04-08T00:21:51.153Z,102003.25
2023-04-08T00:24:18.890Z,102005.97
2023-04-08T00:26:46.633Z,102000.63
2023-04-08T00:29:15.068Z,102001.53
2023-04-08T00:31:42.872Z,102005.16
2023-04-08T00:34:12.045Z,102006.03
2023-04-08T00:36:40.161Z,102002.53
2023-04-08T00:39:07.901Z,102009.69
2023-04-08T00:41:36.498Z,102014.13
2023-04-08T00:44:04.348Z,102008.75
2023-04-08T00:46:32.515Z,102013.22
2023-04-08T00:49:02.267Z,102013.16
2023-04-08T00:51:32.189Z,102010.50
2023-04-08T00:54:00.661Z,102022.94
2023-04-08T00:56:28.916Z,102018.44
2023-04-08T00:58:56.636Z,102017.50
2023-04-08T01:01:33.740Z,102021.09
2023-04-08T01:04:11.044Z,102014.84
2023-04-08T01:06:46.892Z,102021.97
2023-04-08T01:09:15.160Z,102022.84
2023-04-08T01:11:45.703Z,102023.66
2023-04-08T01:14:18.732Z,102021.84
2023-04-08T01:16:47.620Z,102032.41
2023-04-08T01:19:29.831Z,102024.41
2023-04-08T01:22:06.694Z,102024.44
2023-04-08T01:24:40.149Z,102021.72
2023-04-08T01:27:11.630Z,102019.06
2023-04-08T01:29:40.574Z,102019.09
2023-04-08T01:32:09.200Z,102015.56
2023-04-08T01:34:39.455Z,102021.78
2023-04-08T01:37:08.388Z,102030.69
2023-04-08T01:39:37.252Z,102031.56
2023-04-08T01:42:05.774Z,102029.78
2023-04-08T01:44:37.093Z,102027.94
2023-04-08T01:47:05.202Z,102032.28
2023-04-08T01:49:34.137Z,102025.19
2023-04-08T01:52:02.466Z,102023.47
2023-04-08T01:54:30.209Z,102028.75
2023-04-08T01:56:59.602Z,102034.97
2023-04-08T01:59:32.603Z,102042.97
2023-04-08T02:02:03.282Z,102034.78
2023-04-08T02:04:31.141Z,102038.38
2023-04-08T02:06:59.424Z,102037.50
2023-04-08T02:09:27.360Z,102032.06
2023-04-08T02:11:56.943Z,102032.03
2023-04-08T02:14:26.151Z,102030.31
2023-04-08T02:16:55.981Z,102029.38
2023-04-08T02:19:32.706Z,102026.72
2023-04-08T02:22:10.461Z,102040.03
2023-04-08T02:24:40.213Z,102040.97
2023-04-08T02:27:11.519Z,102033.78
2023-04-08T02:29:42.339Z,102033.78
2023-04-08T02:32:15.969Z,102038.19
2023-04-08T02:34:46.005Z,102031.97
2023-04-08T02:37:13.824Z,102041.72
2023-04-08T02:39:41.520Z,102045.25
2023-04-08T02:42:11.726Z,102045.25
2023-04-08T02:44:39.793Z,102041.66
2023-04-08T02:47:07.548Z,102046.91
2023-04-08T02:49:35.548Z,102043.34
2023-04-08T02:52:04.716Z,102043.28
2023-04-08T02:54:32.465Z,102037.03
2023-04-08T02:57:00.191Z,102035.19
2023-04-08T02:59:28.038Z,102041.41
2023-04-08T03:01:55.819Z,102044.88
2023-04-08T03:04:23.554Z,102044.81
2023-04-08T03:06:51.353Z,102039.44
2023-04-08T03:09:20.566Z,102045.56
2023-04-08T03:11:53.074Z,102044.56
2023-04-08T03:14:20.548Z,102046.31
2023-04-08T03:16:48.784Z,102052.44
2023-04-08T03:19:16.724Z,102053.19
2023-04-08T03:21:44.728Z,102052.25
2023-04-08T03:24:12.490Z,102056.66
2023-04-08T03:26:41.564Z,102054.81
2023-04-08T03:29:10.011Z,102050.25
2023-04-08T03:31:38.067Z,102049.38
2023-04-08T03:34:05.813Z,102047.59
2023-04-08T03:36:33.731Z,102052.03
2023-04-08T03:39:01.536Z,102052.94
2023-04-08T03:41:29.297Z,102056.50
2023-04-08T03:43:59.209Z,102060.91
2023-04-08T03:46:27.062Z,102057.41
2023-04-08T03:48:54.847Z,102062.81
2023-04-08T03:51:22.599Z,102065.53
2023-04-08T03:53:50.262Z,102060.94
2023-04-08T03:56:18.096Z,102061.56
2023-04-08T03:58:45.858Z,102064.06
2023-04-08T04:01:15.260Z,102070.28
2023-04-08T04:03:43.194Z,102070.97
2023-04-08T04:06:11.163Z,102069.16
2023-04-08T04:08:38.774Z,102077.09
2023-04-08T04:11:07.124Z,102083.31
2023-04-08T04:13:34.808Z,102084.13
2023-04-08T04:16:02.540Z,102085.72
2023-04-08T04:18:31.695Z,102091.75
2023-04-08T04:20:59.368Z,102089.66
2023-04-08T04:23:27.141Z,102087.84
2023-04-08T04:25:54.799Z,102096.41
2023-04-08T04:28:22.477Z,102098.03
2023-04-08T04:30:50.171Z,102097.44
2023-04-08T04:33:17.956Z,102098.47
2023-04-08T04:35:47.157Z,102100.22
2023-04-08T04:38:14.887Z,102095.88
2023-04-08T04:40:42.604Z,102107.50
2023-04-08T04:43:10.408Z,102108.38
2023-04-08T04:45:38.068Z,102095.69
2023-04-08T04:48:06.186Z,102101.94
2023-04-08T04:50:34.010Z,102116.09
2023-04-08T04:53:03.189Z,102117.34
2023-04-08T04:55:30.954Z,102118.25
2023-04-08T04:57:58.604Z,102128.66
2023-04-08T05:00:26.382Z,102135.72
2023-04-08T05:02:54.405Z,102143.31
2023-04-08T05:05:22.301Z,102142.31
2023-04-08T05:07:50.045Z,102138.78
2023-04-08T05:10:19.220Z,102133.66
2023-04-08T05:12:46.897Z,102137.16
2023-04-08T05:15:14.675Z,102133.75
2023-04-08T05:17:42.474Z,102133.78
2023-04-08T05:20:10.414Z,102141.06
2023-04-08T05:22:38.261Z,102141.06
2023-04-08T05:25:06.786Z,102142.75
2023-04-08T05:27:36.441Z,102145.28
2023-04-08T05:30:04.850Z,102146.06
2023-04-08T05:32:32.763Z,102146.09
2023-04-08T05:35:03.463Z,102145.09
2023-04-08T05:37:31.433Z,102149.56
2023-04-08T05:39:59.168Z,102145.25
2023-04-08T05:42:27.134Z,102160.63
2023-04-08T05:44:56.491Z,102166.06
2023-04-08T05:47:24.273Z,102163.44
2023-04-08T05:49:52.277Z,102172.28
2023-04-08T05:52:20.054Z,102171.38
2023-04-08T05:54:47.875Z,102177.28
2023-04-08T05:57:16.795Z,102183.91
2023-04-08T05:59:45.002Z,102179.59
2023-04-08T06:02:14.175Z,102191.94
2023-04-08T06:04:42.305Z,102179.19
2023-04-08T06:07:10.129Z,102184.56
2023-04-08T06:09:38.377Z,102179.03
2023-04-08T06:12:06.709Z,102184.38
2023-04-08T06:14:34.476Z,102182.50
2023-04-08T06:17:02.331Z,102186.88
2023-04-08T06:19:31.597Z,102190.59
2023-04-08T06:21:59.798Z,102191.91
2023-04-08T06:24:27.766Z,102192.06
2023-04-08T06:26:55.475Z,102193.13
2023-04-08T06:29:23.875Z,102197.91
2023-04-08T06:31:51.808Z,102203.41
2023-04-08T06:34:19.547Z,102205.47
2023-04-08T06:36:50.325Z,102194.44
2023-04-08T06:39:19.425Z,102207.00
2023-04-08T06:41:47.185Z,102210.25
2023-04-08T06:44:14.951Z,102217.91
2023-04-08T06:46:42.689Z,102222.59
2023-04-08T06:49:10.532Z,102219.28
2023-04-08T06:51:38.321Z,102224.59
2023-04-08T06:54:07.456Z,102232.97
2023-04-08T06:56:35.437Z,102241.03
2023-04-08T06:59:03.613Z,102234.78
2023-04-08T07:01:32.172Z,102242.97
2023-04-08T07:04:02.216Z,102239.69
2023-04-08T07:06:30.301Z,102237.13
2023-04-08T07:08:58.149Z,102244.19
2023-04-08T07:11:27.658Z,102237.41
2023-04-08T07:13:55.476Z,102236.78
2023-04-08T07:16:23.265Z,102240.56
2023-04-08T07:18:51.994Z,102246.38
2023-04-08T07:21:20.064Z,102248.44
2023-04-08T07:23:47.961Z,102259.28
2023-04-08T07:26:15.758Z,102259.31
2023-04-08T07:28:45.131Z,102264.47
2023-04-08T07:31:14.647Z,102262.00
2023-04-08T07:33:42.555Z,102267.56
2023-04-08T07:36:11.518Z,102266.84
2023-04-08T07:38:39.553Z,102275.94
2023-04-08T07:41:07.437Z,102271.97
2023-04-08T07:43:37.159Z,102271.28
2023-04-08T07:46:09.100Z,102268.09
2023-04-08T07:48:37.462Z,102266.59
2023-04-08T07:51:08.030Z,102271.06
2023-04-08T07:53:38.792Z,102273.97
2023-04-08T07:56:12.818Z,102280.69
2023-04-08T07:58:41.490Z,102277.41
2023-04-08T08:01:18.903Z,102286.97
2023-04-08T08:03:48.011Z,102294.03
2023-04-08T08:06:16.584Z,102295.72
2023-04-08T08:08:44.530Z,102289.75
2023-04-08T08:11:12.424Z,102292.41
2023-04-08T08:13:40.474Z,102299.72
2023-04-08T08:16:11.432Z,102293.00
2023-04-08T08:18:41.608Z,102288.94
2023-04-08T08:21:10.152Z,102300.78
2023-04-08T08:23:38.546Z,102299.28
2023-04-08T08:26:07.685Z,102304.78
2023-04-08T08:28:35.631Z,102306.75
2023-04-08T08:31:03.440Z,102310.41
2023-04-08T08:33:31.281Z,102313.03
2023-04-08T08:36:00.509Z,102306.88
2023-04-08T08:38:32.155Z,102313.13
2023-04-08T08:41:00.913Z,102315.81
2023-04-08T08:43:30.323Z,102307.88
2023-04-08T08:45:58.138Z,102309.84
2023-04-08T08:48:26.054Z,102309.78
2023-04-08T08:50:53.986Z,102308.91
2023-04-08T08:53:32.743Z,102309.00
2023-04-08T08:58:33.039Z,102311.63
2023-04-08T09:01:01.088Z,102315.16
2023-04-08T09:03:30.224Z,102308.28
2023-04-08T09:06:00.108Z,102315.66
2023-04-08T09:08:32.284Z,102315.41
2023-04-08T09:11:13.488Z,102315.56
2023-04-08T09:13:41.713Z,102314.56
2023-04-08T09:16:10.987Z,102316.56
2023-04-08T09:18:39.970Z,102319.56
2023-04-08T09:21:08.637Z,102322.38
2023-04-08T09:23:43.359Z,102332.53
2023-04-08T09:26:13.146Z,102340.47
2023-04-08T09:28:42.380Z,102340.47
2023-04-08T09:31:21.690Z,102352.13
2023-04-08T09:33:50.384Z,102336.47
2023-04-08T09:36:18.609Z,102333.66
2023-04-08T09:38:49.057Z,102334.47
2023-04-08T09:41:18.168Z,102336.28
2023-04-08T09:43:50.606Z,102341.78
2023-04-08T09:46:23.384Z,102339.41
2023-04-08T09:48:52.279Z,102343.19
2023-04-08T09:51:21.363Z,102338.81
2023-04-08T09:53:57.587Z,102331.19
2023-04-08T09:56:28.754Z,102329.81
2023-04-08T09:59:00.862Z,102329.28
2023-04-08T10:01:34.571Z,102335.88
2023-04-08T10:04:06.482Z,102327.03
2023-04-08T10:06:35.882Z,102321.84
2023-04-08T10:09:05.924Z,102322.88
2023-04-08T10:11:36.430Z,102325.63
2023-04-08T10:14:04.517Z,102322.97
2023-04-08T10:16:32.300Z,102316.78
2023-04-08T10:19:00.156Z,102321.34
2023-04-08T10:21:35.621Z,102332.94
2023-04-08T10:24:08.136Z,102331.16
2023-04-08T10:26:37.223Z,102342.84
2023-04-08T10:29:33.350Z,102343.81
2023-04-08T10:32:02.850Z,102338.47
2023-04-08T10:34:30.924Z,102337.63
2023-04-08T10:37:03.750Z,102339.47
2023-04-08T10:39:33.468Z,102335.81
2023-04-08T10:42:02.818Z,102333.94
2023-04-08T10:44:30.709Z,102327.66
2023-04-08T10:46:58.520Z,102330.25
2023-04-08T10:49:33.743Z,102333.75
2023-04-08T10:52:02.084Z,102330.91
2023-04-08T10:54:29.893Z,102331.63
2023-04-08T10:56:59.949Z,102328.72
2023-04-08T10:59:32.919Z,102333.03
2023-04-08T11:02:01.522Z,102334.84
2023-04-08T11:04:29.596Z,102323.47
2023-04-08T11:06:58.401Z,102316.47
2023-04-08T11:09:26.310Z,102322.81
2023-04-08T11:11:55.025Z,102321.06
2023-04-08T11:14:25.381Z,102327.31
2023-04-08T11:16:53.382Z,102316.56
2023-04-08T11:19:21.466Z,102321.97
2023-04-08T11:21:49.511Z,102321.13
2023-04-08T11:24:17.619Z,102319.53
2023-04-08T11:26:45.799Z,102316.97
2023-04-08T11:29:15.218Z,102326.75
2023-04-08T11:31:44.915Z,102322.19
2023-04-08T11:34:12.928Z,102320.34
2023-04-08T11:36:41.951Z,102322.13
2023-04-08T11:39:13.013Z,102316.84
2023-04-08T11:41:41.389Z,102317.75
2023-04-08T11:44:09.898Z,102324.09
2023-04-08T11:46:42.452Z,102319.72
2023-04-08T11:49:15.921Z,102326.94
2023-04-08T11:51:56.439Z,102323.41
2023-04-08T11:54:28.888Z,102320.88
2023-04-08T11:56:58.495Z,102329.91
2023-04-08T11:59:28.976Z,102331.84
2023-04-08T12:01:57.742Z,102330.13
2023-04-08T12:04:27.254Z,102331.16
2023-04-08T12:06:56.852Z,102324.16
2023-04-08T12:09:25.986Z,102333.03
2023-04-08T12:11:53.710Z,102330.28
2023-04-08T12:14:26.805Z,102332.13
2023-04-08T12:16:56.160Z,102322.34
2023-04-08T12:19:23.951Z,102323.25
2023-04-08T12:21:53.221Z,102325.94
2023-04-08T12:24:21.542Z,102328.56
2023-04-08T12:26:49.411Z,102331.28
2023-04-08T12:29:17.252Z,102331.34
2023-04-08T12:31:45.585Z,102324.16
2023-04-08T12:34:13.597Z,102326.00
2023-04-08T12:36:41.912Z,102317.97
2023-04-08T12:39:11.331Z,102312.56
2023-04-08T12:41:39.098Z,102310.84
2023-04-08T12:44:07.001Z,102315.38
2023-04-08T12:46:34.989Z,102310.88
2023-04-08T12:49:05.113Z,102313.56
2023-04-08T12:51:33.774Z,102306.44
2023-04-08T12:54:02.065Z,102312.63
2023-04-08T12:56:31.594Z,102310.88
2023-04-08T12:58:59.949Z,102312.63
2023-04-08T13:01:28.264Z,102312.63
2023-04-08T13:03:57.137Z,102312.59
2023-04-08T13:06:25.994Z,102313.44
2023-04-08T13:08:53.938Z,102317.00
2023-04-08T13:11:22.585Z,102311.63
2023-04-08T13:13:52.289Z,102313.44
2023-04-08T13:16:20.512Z,102314.38
2023-04-08T13:18:48.373Z,102317.06
2023-04-08T13:21:16.566Z,102305.41
2023-04-08T13:23:44.420Z,102308.97
2023-04-08T13:26:12.480Z,102307.09
2023-04-08T13:28:53.651Z,102316.97
2023-04-08T13:31:25.949Z,102305.41
2023-04-08T13:33:56.980Z,102304.53
2023-04-08T13:36:26.008Z,102307.28
2023-04-08T13:38:53.849Z,102301.06
2023-04-08T13:41:22.142Z,102299.28
2023-04-08T13:43:50.506Z,102291.19
2023-04-08T13:46:18.754Z,102296.56
2023-04-08T13:48:47.983Z,102296.56
2023-04-08T13:51:16.353Z,102296.59
2023-04-08T13:53:44.129Z,102298.38
2023-04-08T13:56:14.160Z,102292.09
2023-04-08T13:58:41.995Z,102292.06
2023-04-08T14:01:09.953Z,102291.19
2023-04-08T14:03:38.034Z,102284.94
2023-04-08T14:06:07.958Z,102293.03
2023-04-08T14:08:36.465Z,102289.41
2023-04-08T14:11:04.356Z,102284.06
2023-04-08T14:13:33.052Z,102288.50
2023-04-08T14:16:02.306Z,102282.22
2023-04-08T14:18:30.162Z,102292.94
2023-04-08T14:20:58.096Z,102285.81
2023-04-08T14:23:27.274Z,102280.44
2023-04-08T14:25:55.028Z,102286.69
2023-04-08T14:28:22.690Z,102283.13
2023-04-08T14:30:50.695Z,102284.91
2023-04-08T14:33:18.979Z,102284.91
2023-04-08T14:35:47.827Z,102284.91
2023-04-08T14:38:15.807Z,102285.78
2023-04-08T14:40:45.051Z,102274.19
2023-04-08T14:43:13.540Z,102279.53
2023-04-08T14:45:42.364Z,102283.09
2023-04-08T14:48:10.339Z,102286.66
2023-04-08T14:50:38.301Z,102283.03
2023-04-08T14:53:06.206Z,102275.84
2023-04-08T14:55:34.037Z,102289.28
2023-04-08T14:58:03.248Z,102284.78
2023-04-08T15:00:31.101Z,102294.63
2023-04-08T15:02:59.206Z,102285.66
2023-04-08T15:05:27.598Z,102287.47
2023-04-08T15:07:55.498Z,102286.59
2023-04-08T15:10:23.400Z,102286.59
2023-04-08T15:12:51.210Z,102286.66
2023-04-08T15:15:20.647Z,102285.72
2023-04-08T15:17:51.000Z,102282.16
2023-04-08T15:20:20.229Z,102280.34
2023-04-08T15:22:48.118Z,102278.53
2023-04-08T15:25:16.119Z,102285.66
2023-04-08T15:27:44.058Z,102286.50
2023-04-08T15:30:12.602Z,102284.78
2023-04-08T15:32:42.448Z,102278.53
2023-04-08T15:35:11.099Z,102284.84
2023-04-08T15:37:38.849Z,102291.16
2023-04-08T15:40:08.215Z,102285.78
2023-04-08T15:42:36.696Z,102282.16
2023-04-08T15:45:05.308Z,102286.66
2023-04-08T15:47:34.405Z,102285.72
2023-04-08T15:50:03.724Z,102290.22
2023-04-08T15:52:35.314Z,102289.28
2023-04-08T15:55:03.642Z,102289.28
2023-04-08T15:57:32.536Z,102296.47
2023-04-08T16:00:00.526Z,102291.97
2023-04-08T16:02:28.678Z,102291.03
2023-04-08T16:04:56.621Z,102297.34
2023-04-08T16:07:25.889Z,102291.03
2023-04-08T16:09:53.727Z,102286.59
2023-04-08T16:12:22.000Z,102287.38
2023-04-08T16:14:49.834Z,102284.72
2023-04-08T16:17:18.071Z,102287.38
2023-04-08T16:19:46.102Z,102289.16
2023-04-08T16:22:14.036Z,102285.66
2023-04-08T16:24:43.253Z,102274.03
2023-04-08T16:27:11.743Z,102275.84
2023-04-08T16:29:39.771Z,102276.72
2023-04-08T16:32:08.917Z,102274.03
2023-04-08T16:34:39.771Z,102282.97
2023-04-08T16:37:07.694Z,102283.81
2023-04-08T16:39:35.765Z,102293.66
2023-04-08T16:42:05.281Z,102286.50
2023-04-08T16:44:33.568Z,102295.47
2023-04-08T16:47:01.650Z,102291.84
2023-04-08T16:49:29.466Z,102293.59
2023-04-08T16:51:57.745Z,102298.94
2023-04-08T16:54:25.649Z,102288.22
2023-04-08T16:56:53.380Z,102299.81
2023-04-08T16:59:23.088Z,102292.69
2023-04-08T17:01:54.429Z,102286.41
2023-04-08T17:04:22.268Z,102295.34
2023-04-08T17:06:50.225Z,102287.28
2023-04-08T17:09:18.168Z,102293.56
2023-04-08T17:11:46.040Z,102296.22
2023-04-08T17:14:13.866Z,102293.50
2023-04-08T17:16:43.114Z,102297.03
2023-04-08T17:19:13.215Z,102295.25
2023-04-08T17:21:42.693Z,102298.81
2023-04-08T17:24:18.032Z,102293.44
2023-04-08T17:26:46.860Z,102295.28
2023-04-08T17:29:14.728Z,102296.13
2023-04-08T17:31:44.667Z,102296.16
2023-04-08T17:34:12.665Z,102299.72
2023-04-08T17:36:40.525Z,102303.25
2023-04-08T17:39:08.361Z,102307.72
2023-04-08T17:41:40.440Z,102304.06
2023-04-08T17:44:08.969Z,102308.53
2023-04-08T17:46:37.034Z,102313.06
2023-04-08T17:49:06.264Z,102313.06
2023-04-08T17:51:34.322Z,102317.50
2023-04-08T17:54:02.276Z,102324.66
2023-04-08T17:56:33.449Z,102321.06
2023-04-08T17:59:06.212Z,102326.41
2023-04-08T18:01:34.486Z,102326.41
2023-04-08T18:04:02.609Z,102331.75
2023-04-08T18:06:32.534Z,102329.03
2023-04-08T18:09:00.770Z,102334.41
2023-04-08T18:11:28.644Z,102333.47
2023-04-08T18:13:56.563Z,102336.13
2023-04-08T18:16:24.521Z,102336.13
2023-04-08T18:18:52.375Z,102335.25
2023-04-08T18:21:21.927Z,102337.00
2023-04-08T18:23:52.165Z,102343.28
2023-04-08T18:26:20.168Z,102342.41
2023-04-08T18:28:47.950Z,102344.19
2023-04-08T18:31:15.729Z,102339.72
2023-04-08T18:33:43.678Z,102341.47
2023-04-08T18:36:13.888Z,102337.91
2023-04-08T18:38:41.864Z,102347.72
2023-04-08T18:41:14.439Z,102340.59
2023-04-08T18:43:42.237Z,102346.84
2023-04-08T18:46:10.137Z,102348.59
2023-04-08T18:48:38.264Z,102349.47
2023-04-08T18:51:06.398Z,102346.78
2023-04-08T18:53:34.113Z,102351.25
2023-04-08T18:56:02.025Z,102353.00
2023-04-08T18:58:31.887Z,102351.22
2023-04-08T19:00:59.650Z,102349.38
2023-04-08T19:03:27.480Z,102352.97
2023-04-08T19:05:55.489Z,102357.41
2023-04-08T19:08:23.299Z,102353.75
2023-04-08T19:10:51.482Z,102360.94
2023-04-08T19:13:19.259Z,102366.28
2023-04-08T19:15:48.488Z,102358.25
2023-04-08T19:18:16.253Z,102362.72
2023-04-08T19:20:44.143Z,102360.03
2023-04-08T19:23:12.027Z,102366.31
2023-04-08T19:25:39.837Z,102361.84
2023-04-08T19:28:09.144Z,102362.69
2023-04-08T19:30:38.635Z,102370.75
2023-04-08T19:33:08.873Z,102368.97
2023-04-08T19:35:36.827Z,102367.19
2023-04-08T19:38:05.665Z,102368.06
2023-04-08T19:40:34.179Z,102358.22
2023-04-08T19:43:02.067Z,102367.16
2023-04-08T19:45:29.832Z,102374.28
2023-04-08T19:47:57.977Z,102376.91
2023-04-08T19:50:27.956Z,102376.00
2023-04-08T19:52:55.792Z,102373.38
2023-04-08T19:55:23.818Z,102372.41
2023-04-08T19:57:52.728Z,102372.38
2023-04-08T20:00:20.532Z,102370.53
2023-04-08T20:02:48.613Z,102377.56
2023-04-08T20:05:17.661Z,102382.03
2023-04-08T20:07:49.649Z,102384.72
2023-04-08T20:10:17.607Z,102389.94
2023-04-08T20:12:45.350Z,102382.88
2023-04-08T20:15:23.559Z,102381.91
2023-04-08T20:17:52.814Z,102387.31
2023-04-08T20:20:21.545Z,102389.13
2023-04-08T20:22:50.799Z,102392.69
2023-04-08T20:25:18.683Z,102395.34
2023-04-08T20:27:46.478Z,102398.94
2023-04-08T20:30:14.352Z,102393.47
2023-04-08T20:32:42.080Z,102394.41
2023-04-08T20:35:10.939Z,102389.81
2023-04-08T20:37:38.951Z,102399.59
2023-04-08T20:40:13.671Z,102399.56
2023-04-08T20:42:41.752Z,102403.13
2023-04-08T20:45:11.027Z,102391.53
2023-04-08T20:47:39.244Z,102397.78
2023-04-08T20:50:08.962Z,102398.69
2023-04-08T20:52:36.803Z,102390.63
2023-04-08T20:55:05.159Z,102387.94
2023-04-08T20:57:34.441Z,102388.75
2023-04-08T21:00:06.370Z,102393.22
2023-04-08T21:02:34.701Z,102385.19
2023-04-08T21:05:02.614Z,102384.34
2023-04-08T21:07:30.794Z,102389.72
2023-04-08T21:09:58.475Z,102384.31
2023-04-08T21:12:26.250Z,102382.50
2023-04-08T21:14:55.410Z,102380.72
2023-04-08T21:17:23.153Z,102391.31
2023-04-08T21:19:50.917Z,102391.34
2023-04-08T21:22:18.694Z,102384.25
2023-04-08T21:24:46.399Z,102388.75
2023-04-08T21:27:14.156Z,102378.91
2023-04-08T21:29:41.918Z,102385.09
2023-04-08T21:32:11.178Z,102381.47
2023-04-08T21:34:38.896Z,102393.13
2023-04-08T21:37:07.198Z,102388.69
2023-04-08T21:39:34.951Z,102381.56
2023-04-08T21:42:02.783Z,102384.19
2023-04-08T21:44:30.860Z,102387.75
2023-04-08T21:47:00.466Z,102386.94
2023-04-08T21:49:31.602Z,102389.50
2023-04-08T21:51:59.419Z,102385.00
2023-04-08T21:54:27.218Z,102384.09
2023-04-08T21:56:55.131Z,102393.91
2023-04-08T21:59:22.859Z,102391.22
2023-04-08T22:01:50.843Z,102397.47
2023-04-08T22:04:19.610Z,102387.69
2023-04-08T22:06:49.796Z,102390.28
2023-04-08T22:09:17.683Z,102384.91
2023-04-08T22:11:45.606Z,102386.69
2023-04-08T22:14:13.553Z,102384.84
2023-04-08T22:16:44.735Z,102384.81
2023-04-08T22:19:12.461Z,102383.00
2023-04-08T22:21:40.608Z,102381.19
2023-04-08T22:24:09.791Z,102379.41
2023-04-08T22:26:37.879Z,102383.72
2023-04-08T22:29:05.684Z,102389.03
2023-04-08T22:31:33.411Z,102388.00
2023-04-08T22:34:01.137Z,102380.81
2023-04-08T22:36:28.886Z,102382.59
2023-04-08T22:38:56.643Z,102377.13
2023-04-08T22:41:25.732Z,102384.25
2023-04-08T22:43:53.417Z,102377.91
2023-04-08T22:46:21.315Z,102381.44
2023-04-08T22:48:49.836Z,102381.31
2023-04-08T22:51:17.824Z,102391.97
2023-04-08T22:53:45.530Z,102389.22
2023-04-08T22:56:13.254Z,102375.72
2023-04-08T22:58:42.448Z,102377.47
2023-04-08T23:01:17.002Z,102371.97
2023-04-08T23:03:45.518Z,102372.75
2023-04-08T23:06:13.266Z,102374.50
2023-04-08T23:08:41.707Z,102371.75
2023-04-08T23:11:09.557Z,102375.16
2023-04-08T23:13:37.617Z,102377.72
2023-04-08T23:16:07.303Z,102366.94
2023-04-08T23:18:35.374Z,102368.69
2023-04-08T23:21:03.884Z,102363.22
2023-04-08T23:23:31.585Z,102360.53
2023-04-08T23:25:59.341Z,102358.69
2023-04-08T23:28:27.031Z,102360.38
2023-04-08T23:30:54.944Z,102355.84
2023-04-08T23:33:24.053Z,102357.63
2023-04-08T23:35:51.822Z,102360.28
2023-04-08T23:38:19.502Z,102354.88
2023-04-08T23:40:47.162Z,102357.50
2023-04-08T23:43:14.924Z,102369.84
2023-04-08T23:45:42.627Z,102371.56
2023-04-08T23:48:10.444Z,102370.56
2023-04-08T23:50:39.549Z,102369.59
2023-04-08T23:53:07.268Z,102369.59
2023-04-08T23:55:34.948Z,102368.66
2023-04-08T23:58:02.906Z,102371.22
